MUCF/CFG METAR and TAF weather

Enter ICAO airport designator
Station Type Date Time Source
MUCF METAR 2019/12/08 10:59 UTC NOAA

MUCF 081059Z AUTO 06005KT 17/17 Q1019


Station Type Date Time Source
MUCF Decoded METAR 2019/12/08 10:59 UTC NOAA

Cienfuegos, Las Villas, Cuba (MUCF) 22-09N 080-24W 39M
Dec 08, 2019 - 05:59 AM EST / 2019.12.08 1059 UTC
Wind: from the ENE (060 degrees) at 6 MPH (5 KT):0
Temperature: 62 F (17 C)
Dew Point: 62 F (17 C)
Relative Humidity: 100%
Pressure (altimeter): 30.09 in. Hg (1019 hPa)
ob: MUCF 081059Z AUTO 06005KT 17/17 Q1019
cycle: 11

Station Type Date Time Source
MUCF TAF 2019/12/08 12:03 UTC NOAA

MUCF 081100Z 0812/0824 VRB03KT 9000 SCT020
BECMG 0815/0817 07008KT

Example: see airport list